Time;durP1;ratioP1;P1;durP2;ratioP2;P2;SDS_P1;SDS_P2;PMS_P1;PMS_P2;Temp;Humidity;BMP_temperature;BMP_pressure;BME280_temperature;BME280_humidity;BME280_pressure;Samples;Min_cycle;Max_cycle;Signal;HPM_P1;HPM_P2
2022/06/10 00:01:06;;;;;;;5.47;3.85;;;;;;;17.70;73.56;100565.55;1762481;80;21007;-84
2022/06/10 00:03:35;;;;;;;4.78;3.90;;;;;;;17.69;73.71;100568.69;1782466;80;21101;-84
2022/06/10 00:06:07;;;;;;;5.15;3.50;;;;;;;17.67;73.85;100570.58;1782212;80;21115;-84
2022/06/10 00:08:45;;;;;;;5.62;4.00;;;;;;;17.65;73.96;100575.59;1782341;80;21561;-84
2022/06/10 00:11:13;;;;;;;5.95;4.00;;;;;;;17.64;74.03;100578.73;1776814;80;21037;-84
2022/06/10 00:13:44;;;;;;;4.22;3.42;;;;;;;17.63;74.27;100584.14;1768361;80;21035;-84
2022/06/10 00:16:13;;;;;;;5.08;3.85;;;;;;;17.63;74.36;100580.17;1782388;80;21000;-84
2022/06/10 00:18:41;;;;;;;4.50;3.58;;;;;;;17.63;74.43;100593.42;1782092;80;21080;-84
2022/06/10 00:21:12;;;;;;;5.53;3.90;;;;;;;17.63;74.55;100588.97;1779867;80;20927;-84
2022/06/10 00:23:39;;;;;;;6.00;4.12;;;;;;;17.64;74.61;100589.81;1765737;80;21042;-84
2022/06/10 00:26:08;;;;;;;4.53;3.42;;;;;;;17.61;74.65;100581.58;1744834;80;21017;-84
2022/06/10 00:28:36;;;;;;;5.07;3.73;;;;;;;17.58;74.67;100587.92;1746025;80;21014;-83
2022/06/10 00:31:04;;;;;;;7.50;4.03;;;;;;;17.58;74.80;100589.73;1759551;80;21102;-84
2022/06/10 00:33:34;;;;;;;3.62;3.30;;;;;;;17.55;74.90;100589.44;1745508;80;21041;-85
2022/06/10 00:36:02;;;;;;;6.42;3.50;;;;;;;17.57;74.95;100599.93;1760885;80;26541;-84
2022/06/10 00:38:30;;;;;;;5.43;3.50;;;;;;;17.56;75.04;100599.56;1768726;80;20988;-85
2022/06/10 00:40:57;;;;;;;5.22;3.70;;;;;;;17.54;75.03;100593.05;1782507;80;21042;-84
2022/06/10 00:43:33;;;;;;;5.15;3.92;;;;;;;17.53;75.06;100604.58;1782428;80;21106;-84
2022/06/10 00:46:23;;;;;;;4.95;3.80;;;;;;;17.53;75.18;100607.71;1744427;80;21027;-84
2022/06/10 00:49:11;;;;;;;4.45;3.70;;;;;;;17.52;75.22;100612.64;1769212;80;21031;-84
2022/06/10 00:51:49;;;;;;;5.25;3.58;;;;;;;17.51;75.34;100619.72;1753914;80;22109;-85
2022/06/10 00:54:39;;;;;;;5.20;4.05;;;;;;;17.48;75.66;100613.77;1755208;80;20988;-84
2022/06/10 00:57:23;;;;;;;6.72;4.00;;;;;;;17.48;75.66;100613.77;1782053;80;21973;-84
2022/06/10 00:59:58;;;;;;;5.00;3.70;;;;;;;17.51;75.47;100624.17;1764177;80;21521;-84
2022/06/10 01:02:30;;;;;;;6.35;4.15;;;;;;;17.48;75.36;100621.72;1784108;80;21040;-84
2022/06/10 01:05:00;;;;;;;5.25;4.10;;;;;;;17.46;75.45;100635.53;1787984;80;21049;-84
2022/06/10 01:07:35;;;;;;;3.85;3.42;;;;;;;17.45;75.43;100634.68;1746269;78;21039;-84
2022/06/10 01:10:08;;;;;;;3.60;3.30;;;;;;;17.43;75.49;100633.07;1755911;80;21580;-85
2022/06/10 01:13:04;;;;;;;4.65;4.17;;;;;;;17.41;75.52;100634.98;1776867;80;20982;-85
2022/06/10 01:16:02;;;;;;;4.87;4.47;;;;;;;17.37;75.69;100631.66;1755982;80;21453;-86
2022/06/10 01:19:17;;;;;;;6.90;4.75;;;;;;;17.37;75.69;100631.66;1749580;80;21488;-84
2022/06/10 01:22:12;;;;;;;4.65;4.00;;;;;;;17.38;75.57;100646.63;1765652;80;20991;-84
2022/06/10 01:25:11;;;;;;;4.97;4.03;;;;;;;17.35;75.63;100641.52;1785622;80;21116;-85
2022/06/10 01:28:10;;;;;;;6.67;4.40;;;;;;;17.36;75.73;100651.16;1772067;80;20979;-84
2022/06/10 01:31:24;;;;;;;5.03;4.40;;;;;;;17.36;75.71;100649.36;1752078;80;21007;-84
2022/06/10 01:34:28;;;;;;;6.85;4.45;;;;;;;17.36;75.68;100654.66;1787484;80;21075;-84
2022/06/10 01:37:15;;;;;;;5.15;4.00;;;;;;;17.33;75.74;100661.95;1786170;80;21034;-85
2022/06/10 01:40:06;;;;;;;5.58;4.65;;;;;;;17.35;75.78;100661.39;1779773;80;21105;-85
2022/06/10 01:42:45;;;;;;;4.62;4.20;;;;;;;17.34;75.71;100657.02;1785492;80;21023;-85
2022/06/10 01:45:38;;;;;;;4.80;4.35;;;;;;;17.31;75.52;100649.26;1786121;80;21010;-85
2022/06/10 01:48:33;;;;;;;5.75;4.80;;;;;;;17.31;75.52;100649.26;1783799;80;21004;-85
2022/06/10 01:51:11;;;;;;;7.00;4.58;;;;;;;17.28;75.62;100667.52;1782093;80;21513;-85
2022/06/10 01:53:47;;;;;;;6.87;4.70;;;;;;;17.24;75.68;100672.63;1780030;80;21265;-85
2022/06/10 01:56:34;;;;;;;6.62;5.00;;;;;;;17.23;75.71;100675.36;1772718;80;21004;-85
2022/06/10 01:59:24;;;;;;;6.08;5.03;;;;;;;17.21;75.69;100677.24;1776788;80;20937;-84
2022/06/10 02:02:02;;;;;;;5.90;5.28;;;;;;;17.19;75.71;100681.33;1776203;80;21466;-85
2022/06/10 02:04:49;;;;;;;5.70;5.17;;;;;;;17.19;75.78;100677.83;1772838;80;21055;-85
2022/06/10 02:07:24;;;;;;;5.67;4.78;;;;;;;17.18;75.82;100687.55;1753896;81;21999;-85
2022/06/10 02:09:57;;;;;;;8.25;4.72;;;;;;;17.17;75.87;100690.67;1747636;81;20991;-85
2022/06/10 02:12:32;;;;;;;6.33;4.80;;;;;;;17.16;75.89;100688.98;1748385;80;21051;-85
2022/06/10 02:15:05;;;;;;;6.40;4.70;;;;;;;17.16;75.97;100688.98;1766004;80;21065;-85
2022/06/10 02:17:46;;;;;;;6.65;5.08;;;;;;;17.17;75.98;100688.50;1761018;80;21266;-84
2022/06/10 02:20:19;;;;;;;5.33;4.60;;;;;;;17.15;75.96;100700.53;1760755;80;21091;-84
2022/06/10 02:22:48;;;;;;;5.70;4.58;;;;;;;17.14;76.02;100690.02;1768267;80;20914;-84
2022/06/10 02:25:20;;;;;;;5.00;4.45;;;;;;;17.11;76.07;100697.67;1763339;80;21033;-84
2022/06/10 02:27:53;;;;;;;5.17;4.62;;;;;;;17.12;76.18;100699.84;1769859;80;21498;-85
2022/06/10 02:30:37;;;;;;;5.70;5.10;;;;;;;17.12;76.18;100699.84;1752280;80;20999;-85
2022/06/10 02:33:05;;;;;;;5.25;4.75;;;;;;;17.11;76.28;100708.27;1774811;80;21312;-84
2022/06/10 02:35:37;;;;;;;7.62;4.65;;;;;;;17.12;76.35;100709.95;1774568;80;20988;-84
2022/06/10 02:38:13;;;;;;;7.20;4.62;;;;;;;17.12;76.31;100709.11;1690631;83;21056;-84
2022/06/10 02:41:00;;;;;;;5.72;4.03;;;;;;;17.11;76.39;100716.69;1729673;82;21003;-85
2022/06/10 02:43:51;;;;;;;4.58;4.12;;;;;;;17.09;76.50;100721.22;1723903;82;21485;-84
2022/06/10 02:46:42;;;;;;;4.33;3.92;;;;;;;17.08;76.38;100726.98;1720881;82;21134;-84
2022/06/10 02:49:19;;;;;;;5.58;4.67;;;;;;;17.06;76.43;100726.22;1738814;82;21122;-85
2022/06/10 02:51:48;;;;;;;5.10;4.53;;;;;;;17.06;76.53;100730.19;1709733;83;21074;-85
2022/06/10 02:54:32;;;;;;;7.37;4.58;;;;;;;17.06;76.50;100732.84;1710813;82;21048;-84
2022/06/10 02:57:17;;;;;;;4.97;3.95;;;;;;;17.06;76.48;100743.91;1693755;83;21052;-84
2022/06/10 03:03:00;;;;;;;6.00;4.55;;;;;;;17.06;76.67;100752.70;1709067;82;21019;-85
2022/06/10 03:05:46;;;;;;;6.28;5.22;;;;;;;17.05;76.60;100754.13;1679450;84;21595;-84
2022/06/10 03:08:23;;;;;;;4.40;4.00;;;;;;;17.05;76.70;100763.40;1706453;84;21091;-83
2022/06/10 03:11:14;;;;;;;4.90;4.45;;;;;;;17.04;76.52;100768.30;1709169;84;21020;-83
2022/06/10 03:14:09;;;;;;;6.50;4.33;;;;;;;17.02;76.64;100764.42;1697357;84;21521;-84
2022/06/10 03:16:59;;;;;;;5.58;5.08;;;;;;;17.02;76.78;100772.37;1683226;84;21585;-83
2022/06/10 03:19:51;;;;;;;;;;;;;;;17.05;76.77;100780.61;1681266;84;21269;-83
2022/06/10 03:22:41;;;;;;;4.92;3.83;;;;;;;17.01;76.81;100777.27;1680618;84;20381;-82
2022/06/10 03:25:50;;;;;;;6.25;4.80;;;;;;;17.01;76.81;100777.27;1706148;84;21122;-83
2022/06/10 03:28:25;;;;;;;6.60;5.28;;;;;;;17.02;76.77;100794.88;1689052;83;22000;-83
2022/06/10 03:31:07;;;;;;;5.85;4.28;;;;;;;17.02;76.77;100794.88;1696210;82;21561;-84
2022/06/10 03:33:54;;;;;;;6.12;5.35;;;;;;;17.03;76.92;100799.23;1697869;84;21052;-82
2022/06/10 03:36:25;;;;;;;6.58;5.15;;;;;;;17.04;76.88;100804.05;1694558;84;21052;-84
2022/06/10 03:38:54;;;;;;;7.53;5.03;;;;;;;17.03;76.90;100809.82;1684395;84;21056;-83
2022/06/10 03:41:26;;;;;;;5.50;4.58;;;;;;;17.03;76.93;100814.27;1708704;84;21522;-81
2022/06/10 03:43:57;;;;;;;6.12;5.37;;;;;;;17.04;77.02;100818.61;1699395;84;21491;-83
2022/06/10 03:46:30;;;;;;;6.42;5.08;;;;;;;17.05;77.04;100822.52;1680187;84;21675;-83
2022/06/10 03:49:00;;;;;;;7.17;5.65;;;;;;;17.04;77.03;100823.43;1696841;84;21458;-92
2022/06/10 03:51:27;;;;;;;7.12;5.40;;;;;;;17.04;77.10;100825.23;1682897;84;21312;-81
2022/06/10 03:53:54;;;;;;;12.80;6.25;;;;;;;17.01;77.10;100827.58;1686468;84;21149;-80
2022/06/10 03:56:25;;;;;;;7.92;5.83;;;;;;;17.01;77.19;100830.70;1697770;83;21057;-81
2022/06/10 03:58:53;;;;;;;5.78;4.80;;;;;;;17.00;77.16;100834.30;1686820;84;21065;-81
2022/06/10 04:01:20;;;;;;;6.45;5.58;;;;;;;17.00;77.34;100840.45;1709441;82;21046;-80
2022/06/10 04:03:47;;;;;;;5.60;5.05;;;;;;;16.99;77.28;100841.41;1680489;84;21499;-81
2022/06/10 04:06:17;;;;;;;7.22;5.75;;;;;;;16.99;77.41;100846.70;1683882;84;21118;-80
2022/06/10 04:08:45;;;;;;;9.38;5.67;;;;;;;17.00;77.45;100847.07;1717886;83;22384;-82
2022/06/10 04:11:12;;;;;;;6.62;5.40;;;;;;;17.01;77.57;100851.41;1698058;83;21071;-85
2022/06/10 04:13:39;;;;;;;6.20;5.60;;;;;;;17.02;77.31;100858.44;1771514;81;21020;-78
2022/06/10 04:16:06;;;;;;;6.25;5.65;;;;;;;17.02;77.31;100858.44;1750743;81;21263;-81
2022/06/10 04:18:33;;;;;;;7.42;5.87;;;;;;;17.00;77.36;100861.64;1739811;81;21429;-84
2022/06/10 04:21:01;;;;;;;7.20;6.00;;;;;;;16.96;77.46;100861.44;1742619;81;21636;-81
2022/06/10 04:23:37;;;;;;;9.40;5.40;;;;;;;16.91;77.64;100855.55;1762895;81;20982;-86
2022/06/10 04:26:15;;;;;;;5.97;5.30;;;;;;;16.96;77.74;100865.41;1758524;81;21636;-87
2022/06/10 04:28:44;;;;;;;7.78;5.67;;;;;;;16.93;77.74;100868.20;1769886;80;21521;-85
2022/06/10 04:31:11;;;;;;;6.15;4.92;;;;;;;17.00;77.92;100869.58;1754962;81;21093;-85
2022/06/10 04:33:38;;;;;;;5.83;4.92;;;;;;;17.01;77.83;100869.95;1762611;81;21023;-85
2022/06/10 04:36:06;;;;;;;7.85;5.22;;;;;;;17.02;77.91;100873.00;1742397;81;21002;-85
2022/06/10 04:38:33;;;;;;;5.05;4.60;;;;;;;17.04;77.91;100872.42;1747080;81;21076;-85
2022/06/10 04:41:00;;;;;;;5.40;4.92;;;;;;;17.07;77.80;100875.38;1770956;80;21028;-84
2022/06/10 04:43:28;;;;;;;7.37;5.35;;;;;;;17.08;77.89;100883.25;1751273;81;21749;-84
2022/06/10 04:45:57;;;;;;;6.40;4.83;;;;;;;17.12;77.90;100883.92;1771448;80;21012;-85
2022/06/10 04:48:25;;;;;;;6.40;4.87;;;;;;;17.13;77.86;100885.17;1752572;80;21060;-85
2022/06/10 04:50:52;;;;;;;5.45;4.25;;;;;;;17.15;77.92;100892.56;1746621;81;21421;-85
2022/06/10 04:53:19;;;;;;;4.80;4.37;;;;;;;17.19;77.82;100886.61;1737123;81;21472;-86
2022/06/10 04:55:46;;;;;;;4.72;3.98;;;;;;;17.19;77.82;100886.61;1761987;81;21099;-85
2022/06/10 04:58:14;;;;;;;5.12;4.20;;;;;;;17.27;77.85;100900.76;1679763;82;20889;-84
2022/06/10 05:00:48;;;;;;;5.15;3.92;;;;;;;17.30;77.81;100903.23;1699364;83;21013;-85
2022/06/10 05:03:16;;;;;;;4.10;3.70;;;;;;;17.35;77.94;100905.15;1710932;80;21034;-84
2022/06/10 05:05:43;;;;;;;6.40;3.95;;;;;;;17.40;77.78;100912.34;1760328;80;21045;-84
2022/06/10 05:08:17;;;;;;;3.83;3.42;;;;;;;17.43;77.72;100913.95;1745987;80;21793;-85
2022/06/10 05:10:46;;;;;;;4.20;3.80;;;;;;;17.45;77.53;100917.38;1745231;80;21026;-84
2022/06/10 05:13:13;;;;;;;4.50;4.10;;;;;;;17.47;77.44;100925.63;1775574;80;21540;-87
2022/06/10 05:15:40;;;;;;;5.75;4.03;;;;;;;17.49;77.34;100924.23;1782219;80;20972;-85
2022/06/10 05:18:08;;;;;;;4.40;3.65;;;;;;;17.49;77.26;100919.78;1771981;80;21542;-86
2022/06/10 05:20:40;;;;;;;8.05;6.10;;;;;;;17.50;77.31;100922.80;1771496;80;21120;-85
2022/06/10 05:23:10;;;;;;;9.58;6.83;;;;;;;17.50;77.18;100923.28;1750105;80;21037;-86
2022/06/10 05:25:40;;;;;;;6.90;5.28;;;;;;;17.49;77.18;100930.86;1744411;81;21469;-85
2022/06/10 05:28:09;;;;;;;5.72;4.75;;;;;;;17.49;77.31;100929.05;1761218;81;21157;-85
2022/06/10 05:30:36;;;;;;;5.40;4.40;;;;;;;17.51;77.24;100936.42;1766117;80;21017;-84
2022/06/10 05:33:06;;;;;;;5.62;4.40;;;;;;;17.54;77.32;100942.91;1736161;80;21143;-84
2022/06/10 05:35:34;;;;;;;5.53;4.75;;;;;;;17.55;77.25;100945.92;1779427;80;21003;-85
2022/06/10 05:38:02;;;;;;;6.08;4.70;;;;;;;17.55;77.26;100955.20;1755908;80;21049;-85
2022/06/10 05:40:31;;;;;;;5.00;4.55;;;;;;;17.53;77.23;100955.75;1749608;81;21568;-85
2022/06/10 05:42:59;;;;;;;5.50;5.00;;;;;;;17.55;77.39;100955.20;1756572;81;21585;-85
2022/06/10 05:45:28;;;;;;;5.53;4.60;;;;;;;17.57;77.41;100964.38;1740451;81;21040;-85
2022/06/10 05:48:00;;;;;;;5.67;5.10;;;;;;;17.58;77.41;100972.25;1763947;80;21020;-85
2022/06/10 05:50:38;;;;;;;8.53;4.70;;;;;;;17.59;77.38;100974.42;1760765;81;21029;-85
2022/06/10 05:53:10;;;;;;;6.35;5.45;;;;;;;17.59;77.51;100972.63;1767155;80;21045;-85
2022/06/10 05:55:38;;;;;;;6.92;5.08;;;;;;;17.61;77.51;100984.00;1773046;80;21302;-90
2022/06/10 05:58:05;;;;;;;6.22;5.37;;;;;;;17.61;77.51;100982.67;1776201;80;21157;-86
2022/06/10 06:00:33;;;;;;;6.25;5.12;;;;;;;17.66;77.65;100982.90;1776268;80;20980;-84
2022/06/10 06:03:00;;;;;;;5.60;4.90;;;;;;;17.68;77.59;100988.50;1776835;80;20984;-82
2022/06/10 06:05:28;;;;;;;7.10;5.62;;;;;;;17.70;77.64;100980.44;1747715;80;21035;-84
2022/06/10 06:07:56;;;;;;;7.05;5.50;;;;;;;17.72;77.55;100971.94;1768819;80;21033;-80
2022/06/10 06:10:27;;;;;;;6.75;5.67;;;;;;;17.72;77.55;100983.39;1782036;79;21153;-80
2022/06/10 06:12:55;;;;;;;7.20;6.50;;;;;;;17.74;77.60;100978.02;1776740;79;21253;-79
2022/06/10 06:15:23;;;;;;;7.10;6.40;;;;;;;17.77;77.68;100975.18;1775204;79;20996;-79
2022/06/10 06:17:51;;;;;;;8.80;6.62;;;;;;;17.81;77.81;100976.25;1760825;80;20994;-79
2022/06/10 06:20:21;;;;;;;7.12;6.35;;;;;;;17.87;77.79;100977.69;1736828;80;22086;-79
2022/06/10 06:22:48;;;;;;;8.48;7.10;;;;;;;17.92;77.83;100984.06;1742582;79;20990;-79
2022/06/10 06:25:18;;;;;;;8.60;7.50;;;;;;;17.99;77.83;100989.41;1769620;80;20959;-79
2022/06/10 06:27:46;;;;;;;7.78;6.97;;;;;;;18.02;77.62;100986.09;1763183;80;21068;-79
2022/06/10 06:30:31;;;;;;;8.00;6.78;;;;;;;18.05;77.54;100989.88;1752142;80;21070;-79
2022/06/10 06:32:53;;;;;;;;;;;;;;;18.11;77.44;100991.80;1739473;80;21052;-81
2022/06/10 06:35:20;;;;;;;7.92;6.40;;;;;;;18.12;77.22;100991.69;1747635;79;21275;-80
2022/06/10 06:37:47;;;;;;;6.72;6.12;;;;;;;18.16;77.30;100993.23;1750925;80;21035;-81
2022/06/10 06:40:17;;;;;;;8.25;6.55;;;;;;;18.21;77.05;101000.93;1759681;79;21031;-82
2022/06/10 06:42:48;;;;;;;;;;;;;;;18.23;76.73;101006.98;1751424;79;21592;-82
2022/06/10 06:45:17;;;;;;;6.87;5.67;;;;;;;18.23;76.50;101010.48;1742146;80;20549;-82
2022/06/10 06:47:44;;;;;;;6.75;6.05;;;;;;;18.25;76.45;101017.03;1746672;79;21032;-84
2022/06/10 06:50:16;;;;;;;6.20;5.60;;;;;;;18.27;76.35;101021.31;1748990;80;21034;-82
2022/06/10 06:52:43;;;;;;;5.97;5.37;;;;;;;18.34;76.42;101023.59;1770079;80;21045;-80
2022/06/10 06:55:11;;;;;;;6.87;5.47;;;;;;;18.41;76.46;101031.10;1769866;80;21019;-82
2022/06/10 06:57:38;;;;;;;4.75;4.25;;;;;;;18.52;76.39;101026.96;1776440;80;21019;-83
2022/06/10 07:00:07;;;;;;;6.28;4.75;;;;;;;18.59;75.96;101036.25;1774168;80;21141;-85
2022/06/10 07:02:37;;;;;;;6.33;4.90;;;;;;;18.62;75.57;101032.95;1747585;79;21480;-83
2022/06/10 07:05:04;;;;;;;;;;;;;;;18.69;75.51;101034.75;1749637;80;21527;-80
2022/06/10 07:07:32;;;;;;;4.25;3.90;;;;;;;18.76;75.18;101040.11;1774087;79;20186;-81
2022/06/10 07:09:59;;;;;;;5.50;4.70;;;;;;;18.84;75.13;101039.62;1738462;80;21175;-80
2022/06/10 07:12:27;;;;;;;4.12;3.70;;;;;;;18.94;74.98;101036.30;1759117;80;21132;-88
2022/06/10 07:14:54;;;;;;;3.95;3.55;;;;;;;19.07;74.81;101051.02;1773682;80;21046;-80
2022/06/10 07:17:22;;;;;;;5.15;4.22;;;;;;;19.21;74.37;101055.47;1776655;80;21035;-79
2022/06/10 07:19:51;;;;;;;4.53;3.72;;;;;;;19.27;73.89;101060.39;1744489;80;21440;-79
2022/06/10 07:22:18;;;;;;;4.92;3.92;;;;;;;19.35;73.54;101057.27;1753385;80;21461;-82
2022/06/10 07:24:46;;;;;;;4.00;3.60;;;;;;;19.41;73.23;101056.02;1775504;80;21041;-79
2022/06/10 07:27:13;;;;;;;4.40;3.83;;;;;;;19.45;73.02;101063.68;1762094;80;21069;-79
2022/06/10 07:29:41;;;;;;;5.05;3.65;;;;;;;19.48;72.79;101055.53;1763045;80;21016;-81
2022/06/10 07:32:08;;;;;;;4.60;3.50;;;;;;;19.50;72.61;101060.73;1737721;80;21016;-81
2022/06/10 07:34:35;;;;;;;4.22;3.58;;;;;;;19.47;72.38;101065.77;1754380;80;21058;-81
2022/06/10 07:37:04;;;;;;;4.83;3.35;;;;;;;19.51;72.41;101069.08;1745835;80;21765;-80
2022/06/10 07:39:34;;;;;;;5.00;3.20;;;;;;;19.54;72.36;101059.61;1756072;80;21049;-81
2022/06/10 07:42:01;;;;;;;4.95;3.52;;;;;;;19.58;72.09;101056.63;1736894;80;21361;-82
2022/06/10 07:44:38;;;;;;;3.80;3.45;;;;;;;19.64;72.20;101067.34;1736038;80;22173;-81
2022/06/10 07:47:09;;;;;;;4.50;3.10;;;;;;;19.71;72.13;101063.87;1765139;80;21430;-81
2022/06/10 07:49:37;;;;;;;3.60;3.00;;;;;;;19.73;71.27;101065.48;1754972;80;21099;-81
2022/06/10 07:52:06;;;;;;;4.00;3.62;;;;;;;19.71;70.77;101067.86;1776471;80;21486;-80
2022/06/10 07:54:34;;;;;;;4.05;3.20;;;;;;;19.68;70.52;101072.89;1773208;80;21053;-81
2022/06/10 07:57:03;;;;;;;5.95;3.55;;;;;;;19.70;70.45;101065.65;1765797;80;21453;-80
2022/06/10 07:59:31;;;;;;;3.55;3.25;;;;;;;19.76;70.62;101064.40;1759227;80;21041;-81
2022/06/10 08:01:59;;;;;;;5.10;3.42;;;;;;;19.87;70.61;101067.23;1768332;80;21165;-80
2022/06/10 08:04:26;;;;;;;3.58;3.25;;;;;;;19.98;70.51;101060.73;1776812;80;21489;-80
2022/06/10 08:06:54;;;;;;;3.55;3.08;;;;;;;20.12;70.46;101058.49;1775787;80;21445;-81
2022/06/10 08:09:21;;;;;;;3.75;3.40;;;;;;;20.23;70.27;101052.42;1765608;80;20994;-79
2022/06/10 08:11:50;;;;;;;4.67;3.22;;;;;;;20.32;70.27;101053.16;1755655;80;21027;-78
2022/06/10 08:14:19;;;;;;;5.87;2.83;;;;;;;20.42;69.91;101054.70;1767361;80;21060;-81
2022/06/10 08:16:46;;;;;;;4.72;2.70;;;;;;;20.49;69.77;101058.66;1761367;80;21037;-80
2022/06/10 08:19:17;;;;;;;4.42;3.05;;;;;;;20.58;69.39;101054.06;1752992;80;21097;-78
2022/06/10 08:24:29;;;;;;;2.67;2.02;;;;;;;20.83;68.50;101051.88;1772763;80;21028;-80
2022/06/10 08:26:56;;;;;;;2.77;1.90;;;;;;;20.98;67.90;101052.64;1770016;80;21063;-78
2022/06/10 08:29:23;;;;;;;2.77;2.15;;;;;;;21.08;67.22;101059.50;1770249;80;21541;-79
2022/06/10 08:31:51;;;;;;;3.60;2.30;;;;;;;21.18;66.83;101057.05;1776337;80;21060;-78
2022/06/10 08:34:18;;;;;;;3.75;2.40;;;;;;;21.30;66.39;101065.48;1776171;80;21046;-81
2022/06/10 08:36:45;;;;;;;3.42;2.30;;;;;;;21.35;65.84;101061.53;1759118;80;21089;-81
2022/06/10 08:39:12;;;;;;;3.05;1.87;;;;;;;21.44;65.65;101072.05;1771092;80;22114;-90
2022/06/10 08:42:05;;;;;;;4.15;1.80;;;;;;;21.50;65.09;101071.59;1772051;80;21011;-80
2022/06/10 08:44:46;;;;;;;3.70;1.70;;;;;;;21.49;64.56;101069.06;1775605;80;20983;-88
2022/06/10 08:47:39;;;;;;;3.20;1.70;;;;;;;21.54;64.43;101064.24;1776838;80;21506;-78
2022/06/10 08:50:37;;;;;;;3.62;1.82;;;;;;;21.63;64.16;101070.23;1757858;80;20972;-78
2022/06/10 08:53:26;;;;;;;2.05;1.12;;;;;;;21.73;63.96;101063.77;1776242;80;21130;-78
2022/06/10 08:56:14;;;;;;;2.37;1.32;;;;;;;21.83;63.42;101060.77;1773809;80;21023;-79
2022/06/10 08:58:49;;;;;;;2.67;1.40;;;;;;;21.92;62.99;101069.90;1764588;80;21055;-80
2022/06/10 09:01:20;;;;;;;2.30;1.10;;;;;;;21.93;62.36;101072.47;1769082;80;21017;-78
2022/06/10 09:04:20;;;;;;;2.15;0.88;;;;;;;21.92;61.88;101063.23;1766665;81;21042;-79
2022/06/10 09:06:51;;;;;;;1.85;0.78;;;;;;;21.92;61.56;101074.78;1713732;81;21145;-80
2022/06/10 09:09:23;;;;;;;1.65;0.80;;;;;;;21.97;60.79;101072.59;1749834;81;21039;-78
2022/06/10 09:12:09;;;;;;;1.32;0.62;;;;;;;21.98;59.88;101080.99;1756270;80;21008;-92
2022/06/10 09:14:36;;;;;;;4.62;0.70;;;;;;;21.98;59.57;101080.99;1704652;80;21046;-78
2022/06/10 09:17:33;;;;;;;1.98;0.78;;;;;;;22.01;58.57;101090.59;1777154;80;21513;-91
2022/06/10 09:20:20;;;;;;;1.10;0.80;;;;;;;22.01;58.15;101085.25;1775246;80;21184;-78
2022/06/10 09:22:58;;;;;;;0.95;0.70;;;;;;;22.00;57.62;101091.54;1768712;80;20976;-78
2022/06/10 09:25:39;;;;;;;2.40;0.68;;;;;;;22.06;57.70;101091.11;1775459;80;21425;-78
2022/06/10 09:28:08;;;;;;;3.52;0.60;;;;;;;22.08;57.39;101083.81;1775948;80;21062;-79
2022/06/10 09:30:49;;;;;;;0.80;0.60;;;;;;;22.13;57.02;101084.81;1774015;79;21087;-81
2022/06/10 09:33:33;;;;;;;1.72;0.70;;;;;;;22.21;56.84;101088.64;1757935;79;21203;-78
2022/06/10 09:36:39;;;;;;;1.57;0.80;;;;;;;22.33;56.47;101088.20;1747733;80;21501;-77
2022/06/10 09:42:45;;;;;;;1.60;0.60;;;;;;;22.62;55.97;101087.33;1764151;80;21405;-77
2022/06/10 09:45:44;;;;;;;2.80;0.55;;;;;;;22.82;55.65;101092.46;1748515;79;21000;-77
2022/06/10 09:48:31;;;;;;;1.32;0.60;;;;;;;22.92;55.30;101096.12;1760781;80;21783;-78
2022/06/10 09:51:44;;;;;;;1.50;0.68;;;;;;;23.07;55.03;101087.91;1769482;80;21045;-77
2022/06/10 09:54:26;;;;;;;2.02;0.75;;;;;;;23.18;54.66;101087.06;1776602;80;21065;-76
2022/06/10 09:57:22;;;;;;;1.77;0.70;;;;;;;23.27;54.05;101091.18;1775287;80;21020;-78
2022/06/10 10:00:12;;;;;;;1.07;0.65;;;;;;;23.34;53.95;101090.22;1757534;80;21536;-77
2022/06/10 10:02:56;;;;;;;2.30;0.72;;;;;;;23.49;53.65;101084.96;1767069;80;21205;-78
2022/06/10 10:05:59;;;;;;;0.98;0.57;;;;;;;23.62;53.12;101096.03;1695918;83;21054;-77
2022/06/10 10:08:47;;;;;;;2.22;0.80;;;;;;;23.59;52.22;101087.77;1729648;82;21023;-77
2022/06/10 10:11:28;;;;;;;2.85;0.50;;;;;;;23.77;52.52;101084.09;1690075;82;21765;-83
2022/06/10 10:14:09;;;;;;;2.30;0.62;;;;;;;23.93;52.19;101082.35;1674451;83;21036;-77
2022/06/10 10:17:01;;;;;;;1.52;0.57;;;;;;;24.06;51.71;101088.89;1735953;82;21466;-77
2022/06/10 10:20:18;;;;;;;1.37;0.65;;;;;;;24.12;50.77;101082.52;1713354;82;21031;-88
2022/06/10 10:22:56;;;;;;;2.80;0.57;;;;;;;24.19;50.69;101089.55;1765126;80;21038;-78
2022/06/10 10:25:25;;;;;;;1.27;0.60;;;;;;;24.38;50.69;101083.50;1763839;80;21092;-79
2022/06/10 10:27:55;;;;;;;3.05;0.53;;;;;;;24.59;50.43;101084.39;1761478;80;21242;-78
2022/06/10 10:30:27;;;;;;;2.95;0.68;;;;;;;24.79;50.01;101077.31;1758546;80;21111;-87
2022/06/10 10:33:03;;;;;;;2.85;0.60;;;;;;;24.92;49.43;101084.66;1763891;80;20983;-87
2022/06/10 10:35:45;;;;;;;1.45;0.60;;;;;;;24.93;48.75;101079.64;1775122;80;20953;-86
2022/06/10 10:38:17;;;;;;;3.08;0.70;;;;;;;25.09;49.05;101085.03;1775242;80;20996;-88
2022/06/10 10:40:47;;;;;;;1.50;0.65;;;;;;;25.43;48.84;101088.79;1774115;80;21047;-88
2022/06/10 10:43:26;;;;;;;1.45;0.62;;;;;;;25.79;48.51;101094.87;1755955;80;21228;-82
2022/06/10 10:46:08;;;;;;;1.17;0.60;;;;;;;26.03;47.56;101084.28;1746205;80;21015;-85
2022/06/10 10:48:46;;;;;;;2.42;0.65;;;;;;;26.33;47.30;101083.76;1758226;80;21058;-82
2022/06/10 10:51:21;;;;;;;4.42;0.80;;;;;;;26.61;46.67;101087.46;1776834;80;20991;-88
2022/06/10 10:53:56;;;;;;;2.92;0.60;;;;;;;26.79;46.26;101087.55;1776884;80;20972;-79
2022/06/10 10:56:38;;;;;;;1.67;0.70;;;;;;;27.01;46.00;101083.16;1774358;80;21825;-86
2022/06/10 10:59:06;;;;;;;1.90;0.80;;;;;;;27.24;45.65;101084.16;1754642;80;21019;-80
2022/06/10 11:01:45;;;;;;;3.57;0.77;;;;;;;27.45;45.30;101085.27;1708024;83;21110;-84
2022/06/10 11:04:19;;;;;;;1.70;0.85;;;;;;;27.64;45.03;101077.59;1769717;80;21505;-89
2022/06/10 11:06:47;;;;;;;1.42;0.62;;;;;;;27.80;44.53;101090.77;1764152;81;21530;-92
2022/06/10 11:09:24;;;;;;;1.55;0.80;;;;;;;27.92;44.17;101085.16;1745249;81;21118;-87
2022/06/10 11:11:52;;;;;;;0.98;0.50;;;;;;;27.95;43.55;101087.53;1766456;80;20992;-86
2022/06/10 11:14:37;;;;;;;2.65;0.60;;;;;;;28.01;43.17;101088.27;1766720;81;21000;-87
2022/06/10 11:17:15;;;;;;;0.85;0.60;;;;;;;28.13;43.19;101088.40;1765945;81;21436;-81
2022/06/10 11:19:56;;;;;;;2.55;0.65;;;;;;;28.28;42.98;101085.15;1764522;81;21002;-85
2022/06/10 11:22:38;;;;;;;2.25;0.80;;;;;;;28.33;42.15;101090.42;1766671;80;21150;-86
2022/06/10 11:25:15;;;;;;;2.70;0.60;;;;;;;28.31;41.89;101095.62;1765822;81;37594;-87
2022/06/10 11:27:55;;;;;;;5.17;0.93;;;;;;;28.45;41.98;101085.65;1764190;81;21010;-86
2022/06/10 11:30:26;;;;;;;3.10;0.70;;;;;;;28.61;41.79;101084.42;1764489;81;20998;-86
2022/06/10 11:33:20;;;;;;;3.27;0.70;;;;;;;28.74;41.46;101083.14;1763260;81;21586;-86
2022/06/10 11:36:04;;;;;;;1.80;0.70;;;;;;;28.82;41.05;101086.77;1764568;81;21108;-84
2022/06/10 11:38:34;;;;;;;2.17;0.70;;;;;;;28.86;40.78;101087.29;1632572;86;21624;-86
2022/06/10 11:41:28;;;;;;;1.10;0.62;;;;;;;28.98;40.69;101080.60;1653498;86;22538;-86
2022/06/10 11:44:03;;;;;;;3.20;0.70;;;;;;;29.03;40.25;101077.43;1653278;86;21203;-86
2022/06/10 11:46:51;;;;;;;2.58;0.80;;;;;;;29.16;40.02;101075.68;1653431;86;21604;-86
2022/06/10 11:49:52;;;;;;;2.67;0.90;;;;;;;29.15;39.83;101088.81;1653411;86;21143;-86
2022/06/10 11:52:52;;;;;;;2.33;0.72;;;;;;;29.17;39.62;101067.41;1653227;86;21019;-87
2022/06/10 11:55:28;;;;;;;3.12;0.70;;;;;;;28.95;38.97;101070.13;1653146;86;21043;-87
2022/06/10 12:01:18;;;;;;;2.52;0.70;;;;;;;28.88;38.75;101073.98;1667911;84;21029;-80
2022/06/10 12:04:13;;;;;;;4.70;0.85;;;;;;;28.96;38.77;101073.66;1639617;85;21131;-85
2022/06/10 12:06:57;;;;;;;2.15;0.60;;;;;;;29.02;38.63;101076.59;1658183;85;21075;-86
2022/06/10 12:09:48;;;;;;;2.55;0.90;;;;;;;29.07;38.69;101073.42;1639971;85;21047;-86
2022/06/10 12:12:29;;;;;;;1.00;0.70;;;;;;;29.35;38.49;101072.73;1660545;84;21564;-87
2022/06/10 12:15:00;;;;;;;1.65;0.80;;;;;;;29.14;38.20;101066.38;1715145;80;20994;-89
2022/06/10 12:17:43;;;;;;;1.98;0.85;;;;;;;29.15;37.97;101076.16;1762554;80;21071;-86
2022/06/10 12:20:36;;;;;;;3.00;1.15;;;;;;;29.23;37.89;101076.70;1757438;80;20990;-89